Tioga Center, New York
Current Conditions -  °F | °C
As of 8:53 AM on Saturday 01 Nov 2014 (Local Time) from KBGM Reporting Station
Overcast Overcast  
Wind Chill: 31°   Ceiling: 4000
Heat Index: 38°   Visibility: 10mi
Dew Point: 33°   Wind: 10mph
Humidity: 83%   Direction: 10°N
Pressure: 29.94"   Gusts: NA
Location:  42.06°N, 76.35°W
Report Text: KBGM 011253Z 01009KT 10SM OVC040 03/01 A2994 RMK AO2 SLP147 T00330006
Loading
Personal Weather Stations






























Interactive Weather Map
Tropical Storm Tracking
New forecast layout! Learn more

10-Day Weather Forecast

Advertisements
Track Severe Weather on mobile